aviador You're here:

PASN Decoded Metar

ST. PAUL ISLAND in AK, USA
Report Time2018-07-16 07:53:00
UTC Time2018-07-16 08:38:45
Flight Rules lifr LIFR
Wind270° at 12 Gusting to 20 kt
W.Decomp.*RWY 18: 2.1 kt HW 11.8 kt RCW
W.Rank270° ranks 22
Current wind is above 270° avg. (10.8)
Visibility6437 m
Phenomena:Mist
Clouds:Overcast 004 Hf
Ceiling400 ft
Temp08°C (ISA -7)
Dew Point08°C (100% RH)
AAT3.2°C
QNH1019 hPa
Density Alt-781 ft
Elevation95 ft
Report Wrong Elevation
Raw Report
PASN 160753Z AUTO 27012G20KT 4SM BR OVC004 08/08 A3009 RMK AO2
SLP191 T00780078 TSNO=

Extra information for PASN:More info

Metar Taf Metar & Taf Last 4 Metars F.Rules Stats Wind Profile Meteogram Temp Stats Airport Information Weather charts Add Link Nearby VenuesMetar ALERT Operation Metar Decoded Social comments

AIRNAV info for PASN